createdAt,value
2023-03-03T00:00:08.811Z,32.33
2023-03-03T00:02:35.721Z,94.75
2023-03-03T00:05:02.698Z,79.25
2023-03-03T00:07:29.763Z,91.25
2023-03-03T00:09:56.874Z,98.75
2023-03-03T00:12:29.516Z,103.25
2023-03-03T00:14:56.838Z,73.50
2023-03-03T00:17:33.043Z,97.50
2023-03-03T00:20:00.031Z,105.25
2023-03-03T00:22:37.422Z,107.25
2023-03-03T00:25:19.979Z,103.00
2023-03-03T00:27:47.238Z,107.00
2023-03-03T00:30:27.773Z,96.75
2023-03-03T00:32:56.105Z,91.50
2023-03-03T00:35:35.661Z,98.75
2023-03-03T00:38:13.044Z,93.25
2023-03-03T00:40:41.248Z,94.50
2023-03-03T00:43:26.117Z,99.75
2023-03-03T00:45:55.230Z,84.75
2023-03-03T00:48:29.357Z,78.25
2023-03-03T00:50:58.949Z,91.75
2023-03-03T00:53:28.290Z,113.50
2023-03-03T00:55:55.848Z,98.75
2023-03-03T00:58:24.419Z,93.75
2023-03-03T01:00:56.901Z,88.00
2023-03-03T01:03:26.769Z,75.50
2023-03-03T01:05:54.898Z,73.25
2023-03-03T01:08:22.602Z,91.75
2023-03-03T01:10:58.845Z,89.25
2023-03-03T01:13:31.658Z,97.25
2023-03-03T01:16:00.234Z,91.00
2023-03-03T01:18:28.095Z,83.50
2023-03-03T01:20:55.043Z,86.25
2023-03-03T01:23:22.296Z,93.00
2023-03-03T01:25:49.682Z,85.25
2023-03-03T01:28:16.599Z,70.25
2023-03-03T01:30:43.775Z,74.00
2023-03-03T01:33:10.727Z,103.25
2023-03-03T01:35:38.079Z,95.25
2023-03-03T01:38:05.046Z,91.25
2023-03-03T01:40:32.162Z,72.75
2023-03-03T01:43:01.977Z,62.75
2023-03-03T01:45:43.697Z,81.25
2023-03-03T01:48:23.580Z,91.75
2023-03-03T01:50:54.752Z,74.75
2023-03-03T01:53:38.665Z,99.50
2023-03-03T01:56:08.988Z,72.00
2023-03-03T01:58:40.790Z,61.25
2023-03-03T02:01:20.678Z,75.00
2023-03-03T02:03:48.772Z,89.75
2023-03-03T02:06:19.529Z,90.75
2023-03-03T02:09:29.940Z,90.50
2023-03-03T02:12:16.406Z,68.50
2023-03-03T02:14:51.329Z,53.25
2023-03-03T02:17:52.689Z,53.00
2023-03-03T02:20:46.351Z,21.33
2023-03-03T02:23:36.432Z,33.33
2023-03-03T02:26:07.760Z,18.00
2023-03-03T02:28:37.067Z,79.75
2023-03-03T02:31:07.651Z,73.50
2023-03-03T02:33:34.592Z,87.00
2023-03-03T02:36:01.564Z,87.25
2023-03-03T02:38:36.772Z,93.50
2023-03-03T02:41:28.264Z,73.50
2023-03-03T02:44:02.738Z,58.00
2023-03-03T02:46:34.633Z,58.50
2023-03-03T02:49:01.953Z,81.25
2023-03-03T02:51:28.877Z,66.75
2023-03-03T02:53:55.851Z,53.25
2023-03-03T02:56:23.339Z,43.25
2023-03-03T02:58:50.612Z,41.33
2023-03-03T03:01:18.033Z,33.33
2023-03-03T03:03:45.160Z,30.00
2023-03-03T03:06:12.154Z,27.33
2023-03-03T03:08:39.206Z,18.67
2023-03-03T03:11:06.374Z,25.33
2023-03-03T03:13:33.914Z,16.33
2023-03-03T03:16:01.281Z,17.67
2023-03-03T03:18:28.567Z,27.00
2023-03-03T03:20:55.556Z,23.67
2023-03-03T03:23:22.533Z,25.67
2023-03-03T03:25:49.758Z,19.33
2023-03-03T03:28:17.912Z,38.50
2023-03-03T03:30:45.962Z,63.25
2023-03-03T03:33:13.285Z,45.25
2023-03-03T03:35:45.782Z,34.75
2023-03-03T03:38:13.494Z,77.75
2023-03-03T03:40:40.808Z,82.00
2023-03-03T03:43:08.006Z,99.00
2023-03-03T03:45:34.955Z,99.00
2023-03-03T03:48:01.992Z,90.25
2023-03-03T03:50:29.115Z,86.50
2023-03-03T03:52:56.039Z,80.00
2023-03-03T03:55:23.213Z,63.50
2023-03-03T03:57:50.281Z,45.25
2023-03-03T04:00:17.442Z,51.00
2023-03-03T04:02:44.441Z,76.00
2023-03-03T04:05:11.459Z,76.00
2023-03-03T04:07:38.366Z,71.50
2023-03-03T04:10:06.012Z,72.50
2023-03-03T04:12:38.669Z,64.50
2023-03-03T04:15:10.986Z,39.75
2023-03-03T04:17:38.017Z,43.75
2023-03-03T04:20:06.241Z,69.50
2023-03-03T04:22:34.224Z,93.00
2023-03-03T04:25:05.470Z,81.50
2023-03-03T04:27:33.907Z,81.25
2023-03-03T04:30:02.019Z,58.75
2023-03-03T04:32:29.324Z,63.00
2023-03-03T04:35:07.275Z,54.00
2023-03-03T04:37:36.660Z,41.50
2023-03-03T04:40:08.249Z,73.25
2023-03-03T04:42:35.776Z,73.00
2023-03-03T04:45:03.243Z,34.00
2023-03-03T04:47:30.242Z,63.00
2023-03-03T04:49:57.169Z,49.50
2023-03-03T04:52:24.234Z,83.50
2023-03-03T04:54:51.129Z,95.25
2023-03-03T04:57:18.087Z,63.75
2023-03-03T04:59:45.189Z,55.75
2023-03-03T05:02:13.285Z,90.25
2023-03-03T05:04:40.272Z,90.75
2023-03-03T05:07:07.208Z,84.75
2023-03-03T05:09:34.420Z,69.75
2023-03-03T05:12:01.353Z,72.25
2023-03-03T05:14:28.435Z,97.00
2023-03-03T05:16:55.408Z,84.25
2023-03-03T05:19:22.408Z,86.00
2023-03-03T05:21:49.450Z,114.00
2023-03-03T05:24:16.494Z,115.00
2023-03-03T05:26:43.365Z,121.25
2023-03-03T05:29:10.429Z,107.25
2023-03-03T05:31:37.423Z,108.00
2023-03-03T05:34:04.418Z,94.25
2023-03-03T05:36:31.462Z,75.00
2023-03-03T05:38:58.720Z,99.25
2023-03-03T05:41:25.759Z,81.00
2023-03-03T05:43:52.820Z,92.50
2023-03-03T05:49:00.460Z,68.50
2023-03-03T05:51:27.375Z,71.75
2023-03-03T05:53:56.370Z,58.25
2023-03-03T05:56:23.666Z,54.00
2023-03-03T05:58:50.568Z,57.25
2023-03-03T06:01:17.595Z,87.75
2023-03-03T06:03:44.570Z,91.50
2023-03-03T06:06:12.594Z,102.50
2023-03-03T06:08:39.557Z,98.25
2023-03-03T06:11:06.464Z,88.75
2023-03-03T06:13:33.379Z,96.75
2023-03-03T06:16:00.387Z,91.00
2023-03-03T06:18:27.367Z,85.50
2023-03-03T06:20:55.350Z,83.00
2023-03-03T06:23:22.994Z,72.25
2023-03-03T06:25:50.103Z,72.50
2023-03-03T06:28:17.220Z,62.75
2023-03-03T06:30:44.228Z,60.75
2023-03-03T06:33:11.273Z,62.50
2023-03-03T06:35:38.247Z,96.75
2023-03-03T06:38:05.241Z,109.25
2023-03-03T06:40:32.202Z,95.50
2023-03-03T06:42:59.124Z,84.25
2023-03-03T06:45:26.099Z,90.75
2023-03-03T06:47:53.002Z,109.25
2023-03-03T06:50:21.238Z,110.50
2023-03-03T06:52:48.371Z,119.00
2023-03-03T06:55:23.677Z,111.75
2023-03-03T06:57:50.605Z,102.75
2023-03-03T07:00:30.701Z,107.00
2023-03-03T07:03:06.282Z,108.25
2023-03-03T07:05:34.635Z,109.25
2023-03-03T07:08:01.566Z,99.75
2023-03-03T07:10:31.289Z,124.50
2023-03-03T07:13:17.215Z,124.50
2023-03-03T07:15:44.223Z,152.00
2023-03-03T07:18:35.435Z,107.25
2023-03-03T07:21:36.880Z,90.75
2023-03-03T07:24:28.121Z,81.75
2023-03-03T07:27:21.870Z,77.25
2023-03-03T07:29:51.753Z,64.00
2023-03-03T07:32:34.579Z,122.75
2023-03-03T07:35:03.004Z,139.75
2023-03-03T07:37:39.041Z,138.00
2023-03-03T07:40:34.999Z,142.50
2023-03-03T07:43:17.364Z,124.75
2023-03-03T07:45:44.359Z,112.00
2023-03-03T07:48:14.055Z,110.00
2023-03-03T07:50:41.650Z,105.00
2023-03-03T07:53:36.631Z,101.50
2023-03-03T07:56:12.793Z,107.00
2023-03-03T07:58:42.318Z,110.00
2023-03-03T08:01:31.971Z,110.50
2023-03-03T08:03:58.961Z,136.50
2023-03-03T08:06:36.289Z,112.50
2023-03-03T08:09:29.970Z,121.75
2023-03-03T08:12:02.609Z,114.75
2023-03-03T08:14:36.823Z,130.25
2023-03-03T08:17:15.392Z,130.50
2023-03-03T08:19:42.359Z,123.25
2023-03-03T08:22:21.482Z,133.25
2023-03-03T08:24:48.454Z,123.00
2023-03-03T08:27:15.420Z,113.50
2023-03-03T08:29:42.291Z,106.75
2023-03-03T08:32:09.283Z,109.75
2023-03-03T08:34:36.231Z,98.25
2023-03-03T08:37:03.239Z,104.75
2023-03-03T08:39:30.117Z,98.50
2023-03-03T08:41:56.999Z,99.25
2023-03-03T08:44:24.412Z,93.25
2023-03-03T08:46:51.448Z,101.75
2023-03-03T08:49:18.617Z,105.00
2023-03-03T08:51:45.700Z,100.00
2023-03-03T08:54:12.589Z,96.25
2023-03-03T08:56:39.571Z,96.50
2023-03-03T08:59:06.447Z,99.00
2023-03-03T09:01:33.548Z,89.50
2023-03-03T09:04:00.918Z,83.25
2023-03-03T09:06:27.948Z,92.25
2023-03-03T09:08:55.249Z,69.25
2023-03-03T09:11:28.010Z,88.25
2023-03-03T09:14:29.035Z,79.75
2023-03-03T09:16:57.416Z,97.25
2023-03-03T09:19:32.628Z,88.00
2023-03-03T09:22:12.015Z,92.50
2023-03-03T09:24:38.929Z,92.50
2023-03-03T09:27:20.025Z,88.25
2023-03-03T09:29:46.945Z,84.75
2023-03-03T09:32:34.671Z,68.50
2023-03-03T09:35:27.568Z,75.75
2023-03-03T09:37:54.673Z,76.75
2023-03-03T09:40:45.995Z,83.25
2023-03-03T09:43:17.282Z,77.75
2023-03-03T09:45:57.754Z,71.75
2023-03-03T09:48:47.398Z,61.00
2023-03-03T09:51:54.129Z,66.75
2023-03-03T09:54:32.530Z,70.00
2023-03-03T09:57:09.041Z,77.75
2023-03-03T09:59:51.005Z,72.00
2023-03-03T10:02:45.840Z,74.50
2023-03-03T10:05:33.026Z,68.50
2023-03-03T10:08:13.112Z,62.50
2023-03-03T10:10:51.411Z,69.75
2023-03-03T10:13:52.259Z,65.25
2023-03-03T10:16:27.914Z,57.00
2023-03-03T10:19:02.736Z,69.25
2023-03-03T10:21:48.697Z,70.00
2023-03-03T10:24:30.934Z,59.33
2023-03-03T10:27:54.938Z,61.33
2023-03-03T10:30:42.657Z,70.25
2023-03-03T10:33:34.848Z,63.00
2023-03-03T10:36:11.051Z,55.67
2023-03-03T10:39:03.480Z,62.50
2023-03-03T10:41:42.378Z,62.33
2023-03-03T10:44:32.908Z,45.67
2023-03-03T10:47:18.336Z,49.00
2023-03-03T10:50:16.256Z,53.67
2023-03-03T10:53:15.458Z,56.33
2023-03-03T10:55:53.463Z,45.67
2023-03-03T10:58:58.841Z,64.00
2023-03-03T11:01:48.692Z,69.33
2023-03-03T11:04:46.020Z,53.00
2023-03-03T11:07:26.695Z,59.33
2023-03-03T11:10:18.450Z,61.00
2023-03-03T11:12:57.637Z,52.00
2023-03-03T11:15:36.878Z,55.67
2023-03-03T11:18:25.258Z,56.67
2023-03-03T11:21:07.737Z,60.67
2023-03-03T11:23:52.600Z,66.67
2023-03-03T11:26:40.974Z,65.33
2023-03-03T11:29:31.608Z,61.67
2023-03-03T11:32:24.548Z,62.00
2023-03-03T11:35:23.872Z,52.33
2023-03-03T11:38:14.804Z,47.33
2023-03-03T11:41:07.386Z,35.33
2023-03-03T11:43:50.092Z,43.00
2023-03-03T11:46:22.757Z,45.33
2023-03-03T11:48:52.440Z,43.67
2023-03-03T11:51:41.626Z,54.33
2023-03-03T11:54:24.508Z,42.00
2023-03-03T11:56:57.669Z,31.00
2023-03-03T11:59:55.188Z,31.00
2023-03-03T12:02:28.021Z,27.33
2023-03-03T12:05:21.760Z,58.67
2023-03-03T12:08:08.061Z,38.67
2023-03-03T12:10:58.413Z,29.67
2023-03-03T12:13:50.967Z,55.67
2023-03-03T12:16:43.988Z,45.00
2023-03-03T12:19:16.710Z,28.00
2023-03-03T12:21:49.679Z,31.33
2023-03-03T12:24:54.557Z,26.00
2023-03-03T12:27:36.656Z,52.33
2023-03-03T12:30:40.817Z,46.33
2023-03-03T12:33:39.692Z,53.33
2023-03-03T12:36:27.855Z,60.00
2023-03-03T12:39:07.011Z,52.67
2023-03-03T12:41:45.909Z,48.67
2023-03-03T12:44:26.464Z,55.00
2023-03-03T12:47:23.956Z,44.33
2023-03-03T12:50:23.669Z,46.33
2023-03-03T12:53:02.767Z,38.00
2023-03-03T12:55:52.925Z,32.00
2023-03-03T12:58:20.666Z,16.67
2023-03-03T13:01:13.869Z,39.67
2023-03-03T13:03:55.006Z,33.00
2023-03-03T13:06:34.535Z,59.00
2023-03-03T13:09:27.185Z,53.67
2023-03-03T13:12:16.622Z,40.67
2023-03-03T13:15:02.832Z,42.67
2023-03-03T13:17:40.227Z,47.33
2023-03-03T13:20:35.061Z,47.00
2023-03-03T13:23:22.239Z,40.67
2023-03-03T13:26:00.998Z,39.00
2023-03-03T13:28:50.630Z,25.00
2023-03-03T13:31:22.257Z,20.33
2023-03-03T13:33:58.344Z,23.33
2023-03-03T13:36:41.732Z,69.00
2023-03-03T13:39:23.569Z,59.33
2023-03-03T13:42:01.843Z,69.00
2023-03-03T13:44:40.736Z,76.00
2023-03-03T13:47:14.839Z,48.67
2023-03-03T13:49:55.548Z,60.67
2023-03-03T13:52:25.651Z,53.00
2023-03-03T13:55:00.327Z,49.00
2023-03-03T13:57:30.113Z,30.33
2023-03-03T14:00:02.689Z,47.33
2023-03-03T14:02:48.295Z,57.00
2023-03-03T14:05:37.770Z,62.33
2023-03-03T14:08:25.748Z,56.67
2023-03-03T14:11:07.645Z,26.33
2023-03-03T14:13:49.681Z,48.33
2023-03-03T14:16:23.502Z,53.33
2023-03-03T14:19:04.026Z,66.67
2023-03-03T14:21:40.777Z,63.33
2023-03-03T14:24:17.602Z,58.00
2023-03-03T14:26:59.495Z,42.33
2023-03-03T14:29:26.306Z,70.00
2023-03-03T14:31:54.667Z,78.00
2023-03-03T14:34:24.619Z,78.33
2023-03-03T14:36:57.802Z,66.00
2023-03-03T14:39:40.302Z,72.67
2023-03-03T14:42:31.763Z,66.67
2023-03-03T14:45:01.438Z,72.33
2023-03-03T14:47:30.094Z,66.67
2023-03-03T14:50:03.189Z,63.67
2023-03-03T14:52:33.647Z,56.67
2023-03-03T14:55:05.470Z,66.00
2023-03-03T14:57:34.729Z,67.33
2023-03-03T15:00:27.910Z,63.67
2023-03-03T15:03:16.239Z,61.67
2023-03-03T15:05:51.410Z,62.33
2023-03-03T15:08:31.242Z,52.67
2023-03-03T15:11:14.514Z,65.00
2023-03-03T15:13:41.543Z,50.33
2023-03-03T15:16:16.925Z,60.67
2023-03-03T15:19:14.824Z,67.33
2023-03-03T15:21:55.545Z,63.67
2023-03-03T15:24:39.605Z,61.33
2023-03-03T15:27:21.406Z,70.67
2023-03-03T15:30:02.275Z,59.67
2023-03-03T15:32:51.984Z,50.00
2023-03-03T15:35:35.001Z,40.67
2023-03-03T15:38:25.300Z,60.00
2023-03-03T15:41:06.967Z,55.33
2023-03-03T15:43:39.329Z,64.00
2023-03-03T15:46:33.835Z,62.00
2023-03-03T15:49:22.131Z,67.33
2023-03-03T15:52:21.610Z,65.00
2023-03-03T15:54:51.247Z,48.00
2023-03-03T15:57:50.763Z,58.00
2023-03-03T16:00:29.474Z,60.67
2023-03-03T16:03:02.599Z,64.67
2023-03-03T16:05:39.888Z,66.67
2023-03-03T16:08:19.292Z,62.67
2023-03-03T16:11:09.561Z,71.00
2023-03-03T16:13:59.921Z,63.33
2023-03-03T16:16:41.826Z,51.00
2023-03-03T16:19:45.384Z,72.25
2023-03-03T16:22:49.392Z,70.75
2023-03-03T16:25:37.956Z,63.00
2023-03-03T16:28:07.610Z,78.00
2023-03-03T16:30:53.401Z,72.00
2023-03-03T16:33:20.272Z,62.00
2023-03-03T16:36:02.723Z,69.33
2023-03-03T16:38:44.331Z,65.67
2023-03-03T16:41:23.452Z,63.67
2023-03-03T16:44:16.401Z,62.00
2023-03-03T16:46:50.000Z,59.67
2023-03-03T16:49:32.091Z,51.00
2023-03-03T16:52:07.753Z,64.00
2023-03-03T16:54:40.739Z,39.67
2023-03-03T16:57:46.153Z,52.33
2023-03-03T17:00:21.691Z,60.33
2023-03-03T17:03:13.446Z,45.67
2023-03-03T17:05:45.492Z,39.33
2023-03-03T17:08:27.138Z,37.00
2023-03-03T17:11:02.803Z,31.00
2023-03-03T17:13:43.785Z,34.33
2023-03-03T17:16:49.820Z,47.33
2023-03-03T17:19:28.902Z,40.67
2023-03-03T17:22:12.371Z,36.67
2023-03-03T17:24:57.860Z,27.33
2023-03-03T17:27:46.702Z,32.00
2023-03-03T17:30:31.658Z,34.00
2023-03-03T17:33:37.080Z,33.33
2023-03-03T17:36:38.237Z,28.33
2023-03-03T17:39:42.858Z,27.33
2023-03-03T17:42:43.035Z,19.00
2023-03-03T17:45:15.590Z,25.33
2023-03-03T17:47:54.552Z,35.00
2023-03-03T17:50:30.530Z,29.33
2023-03-03T17:52:57.448Z,49.00
2023-03-03T17:55:30.371Z,46.67
2023-03-03T17:58:43.069Z,36.33
2023-03-03T18:02:01.614Z,68.00
2023-03-03T18:04:46.403Z,47.33
2023-03-03T18:07:34.172Z,44.67
2023-03-03T18:10:28.329Z,50.67
2023-03-03T18:13:13.156Z,46.33
2023-03-03T18:16:19.330Z,45.00
2023-03-03T18:19:23.945Z,47.00
2023-03-03T18:22:13.095Z,57.33
2023-03-03T18:25:09.406Z,40.33
2023-03-03T18:27:43.273Z,72.33
2023-03-03T18:30:20.682Z,54.67
2023-03-03T18:33:02.428Z,61.00
2023-03-03T18:35:46.471Z,63.67
2023-03-03T18:38:16.384Z,71.67
2023-03-03T18:41:12.610Z,72.67
2023-03-03T18:43:45.668Z,47.33
2023-03-03T18:46:23.101Z,44.67
2023-03-03T18:48:50.032Z,43.67
2023-03-03T18:51:37.467Z,39.67
2023-03-03T18:54:13.867Z,36.00
2023-03-03T18:57:03.921Z,23.00
2023-03-03T18:59:30.793Z,36.33
2023-03-03T19:02:21.092Z,23.33
2023-03-03T19:05:11.569Z,25.67
2023-03-03T19:07:41.605Z,36.33
2023-03-03T19:10:20.502Z,32.00
2023-03-03T19:12:54.550Z,43.33
2023-03-03T19:15:30.473Z,30.33
2023-03-03T19:18:06.135Z,42.00
2023-03-03T19:20:55.431Z,34.00
2023-03-03T19:23:35.554Z,45.00
2023-03-03T19:26:30.523Z,48.33
2023-03-03T19:29:12.669Z,62.00
2023-03-03T19:32:17.140Z,62.67
2023-03-03T19:35:27.410Z,64.33
2023-03-03T19:38:32.533Z,68.67
2023-03-03T19:41:10.123Z,69.33
2023-03-03T19:44:10.348Z,51.67
2023-03-03T19:46:56.138Z,29.67
2023-03-03T19:49:38.475Z,36.33
2023-03-03T19:52:39.292Z,62.67
2023-03-03T19:55:24.272Z,42.00
2023-03-03T19:58:14.390Z,38.67
2023-03-03T20:00:48.105Z,41.67
2023-03-03T20:03:34.232Z,45.00
2023-03-03T20:06:23.561Z,61.00
2023-03-03T20:09:03.952Z,55.33
2023-03-03T20:11:48.272Z,42.67
2023-03-03T20:14:36.791Z,65.00
2023-03-03T20:17:22.457Z,60.00
2023-03-03T20:19:57.285Z,54.67
2023-03-03T20:23:17.097Z,37.33
2023-03-03T20:25:49.061Z,36.33
2023-03-03T20:28:43.879Z,34.33
2023-03-03T20:31:19.637Z,38.67
2023-03-03T20:33:55.210Z,48.33
2023-03-03T20:36:39.974Z,45.67
2023-03-03T20:39:20.815Z,38.33
2023-03-03T20:42:15.012Z,52.67
2023-03-03T20:44:59.239Z,30.67
2023-03-03T20:48:02.950Z,28.00
2023-03-03T20:50:48.753Z,46.33
2023-03-03T20:53:52.618Z,58.00
2023-03-03T20:56:31.210Z,45.67
2023-03-03T20:59:17.741Z,58.33
2023-03-03T21:02:10.473Z,51.33
2023-03-03T21:04:38.578Z,57.33
2023-03-03T21:07:06.648Z,44.00
2023-03-03T21:09:39.958Z,53.67
2023-03-03T21:12:29.215Z,47.33
2023-03-03T21:15:01.266Z,46.33
2023-03-03T21:17:30.687Z,44.67
2023-03-03T21:20:19.218Z,42.67
2023-03-03T21:22:46.412Z,38.67
2023-03-03T21:25:41.986Z,41.33
2023-03-03T21:28:26.017Z,39.33
2023-03-03T21:31:17.138Z,59.33
2023-03-03T21:33:49.119Z,42.33
2023-03-03T21:36:35.899Z,40.33
2023-03-03T21:39:20.666Z,53.00
2023-03-03T21:41:55.557Z,50.67
2023-03-03T21:44:50.147Z,43.33
2023-03-03T21:47:20.164Z,47.67
2023-03-03T21:49:49.109Z,53.00
2023-03-03T21:52:17.988Z,63.33
2023-03-03T21:54:46.588Z,75.67
2023-03-03T21:57:14.207Z,60.00
2023-03-03T21:59:41.599Z,50.00
2023-03-03T22:02:09.375Z,50.67
2023-03-03T22:04:39.057Z,41.33
2023-03-03T22:07:06.015Z,41.33
2023-03-03T22:09:33.030Z,58.33
2023-03-03T22:11:59.974Z,47.33
2023-03-03T22:14:27.174Z,50.33
2023-03-03T22:16:54.182Z,52.67
2023-03-03T22:19:21.546Z,45.33
2023-03-03T22:21:49.911Z,41.00
2023-03-03T22:24:17.376Z,37.33
2023-03-03T22:26:44.328Z,39.00
2023-03-03T22:29:11.384Z,29.00
2023-03-03T22:31:38.336Z,39.67
2023-03-03T22:34:05.736Z,64.33
2023-03-03T22:36:32.866Z,50.00
2023-03-03T22:39:01.116Z,45.00
2023-03-03T22:41:28.113Z,61.33
2023-03-03T22:43:55.066Z,45.33
2023-03-03T22:46:22.004Z,54.67
2023-03-03T22:48:48.892Z,58.33
2023-03-03T22:51:15.876Z,59.00
2023-03-03T22:53:42.762Z,43.33
2023-03-03T22:56:09.770Z,59.00
2023-03-03T22:58:36.661Z,49.67
2023-03-03T23:01:05.025Z,50.00
2023-03-03T23:03:32.991Z,51.00
2023-03-03T23:06:00.039Z,39.00
2023-03-03T23:08:27.822Z,27.00
2023-03-03T23:10:54.802Z,36.00
2023-03-03T23:13:21.915Z,38.33
2023-03-03T23:15:48.884Z,38.67
2023-03-03T23:18:15.930Z,31.00
2023-03-03T23:20:46.173Z,31.00
2023-03-03T23:23:13.230Z,35.33
2023-03-03T23:25:40.301Z,34.33
2023-03-03T23:28:07.989Z,26.67
2023-03-03T23:30:34.939Z,23.33
2023-03-03T23:33:01.876Z,25.00
2023-03-03T23:35:28.911Z,46.00
2023-03-03T23:37:55.896Z,53.33
2023-03-03T23:40:23.024Z,38.67
2023-03-03T23:42:50.323Z,57.67
2023-03-03T23:45:17.584Z,52.00
2023-03-03T23:47:44.542Z,51.00
2023-03-03T23:50:12.840Z,42.00
2023-03-03T23:52:39.820Z,42.33
2023-03-03T23:55:07.461Z,46.67
2023-03-03T23:57:34.382Z,37.00
